sensor_id;sensor_type;location;lat;lon;timestamp;pressure;altitude;pressure_sealevel;temperature;humidity
35878;BME280;21982;49.804;24.072;2023-08-31T00:01:08;96372.84;;;19.25;76.77
35878;BME280;21982;49.804;24.072;2023-08-31T00:03:34;96387.66;;;19.32;77.11
35878;BME280;21982;49.804;24.072;2023-08-31T00:06:03;96387.66;;;19.37;76.85
35878;BME280;21982;49.804;24.072;2023-08-31T00:08:29;96388.47;;;19.38;77.04
35878;BME280;21982;49.804;24.072;2023-08-31T00:10:56;96365.63;;;19.25;76.88
35878;BME280;21982;49.804;24.072;2023-08-31T00:13:22;96395.16;;;19.35;77.01
35878;BME280;21982;49.804;24.072;2023-08-31T00:15:47;96330.38;;;18.86;76.93
35878;BME280;21982;49.804;24.072;2023-08-31T00:18:14;96343.81;;;18.96;77.00
35878;BME280;21982;49.804;24.072;2023-08-31T00:20:41;96379.56;;;19.27;76.94
35878;BME280;21982;49.804;24.072;2023-08-31T00:23:07;96352.72;;;19.17;76.97
35878;BME280;21982;49.804;24.072;2023-08-31T00:25:32;96361.59;;;19.33;76.92
35878;BME280;21982;49.804;24.072;2023-08-31T00:27:57;96367.50;;;19.30;76.79
35878;BME280;21982;49.804;24.072;2023-08-31T00:30:30;96352.72;;;19.22;77.02
35878;BME280;21982;49.804;24.072;2023-08-31T00:32:55;96360.53;;;19.29;76.68
35878;BME280;21982;49.804;24.072;2023-08-31T00:35:25;96347.34;;;19.22;76.69
35878;BME280;21982;49.804;24.072;2023-08-31T00:37:52;96372.59;;;19.31;76.63
35878;BME280;21982;49.804;24.072;2023-08-31T00:40:22;96360.81;;;19.32;76.82
35878;BME280;21982;49.804;24.072;2023-08-31T00:42:47;96364.84;;;19.35;76.74
35878;BME280;21982;49.804;24.072;2023-08-31T00:45:13;96361.88;;;19.36;76.81
35878;BME280;21982;49.804;24.072;2023-08-31T00:47:38;96308.13;;;19.06;76.76
35878;BME280;21982;49.804;24.072;2023-08-31T00:50:06;96288.28;;;18.97;76.46
35878;BME280;21982;49.804;24.072;2023-08-31T00:52:32;96351.66;;;19.28;76.77
35878;BME280;21982;49.804;24.072;2023-08-31T00:54:58;96327.19;;;19.09;77.11
35878;BME280;21982;49.804;24.072;2023-08-31T00:57:23;96365.63;;;19.35;77.01
35878;BME280;21982;49.804;24.072;2023-08-31T00:59:51;96365.63;;;19.35;76.99
35878;BME280;21982;49.804;24.072;2023-08-31T01:02:24;96355.97;;;19.29;76.33
35878;BME280;21982;49.804;24.072;2023-08-31T01:07:57;96369.41;;;19.34;76.64
35878;BME280;21982;49.804;24.072;2023-08-31T01:12:57;96372.34;;;19.33;76.91
35878;BME280;21982;49.804;24.072;2023-08-31T01:15:26;96371.22;;;19.14;76.18
35878;BME280;21982;49.804;24.072;2023-08-31T01:17:55;96373.13;;;19.23;76.84
35878;BME280;21982;49.804;24.072;2023-08-31T01:20:34;96354.06;;;19.25;76.41
35878;BME280;21982;49.804;24.072;2023-08-31T01:23:06;96360.25;;;19.25;76.39
35878;BME280;21982;49.804;24.072;2023-08-31T01:25:36;96382.81;;;19.29;76.97
35878;BME280;21982;49.804;24.072;2023-08-31T01:28:02;96329.34;;;19.02;76.78
35878;BME280;21982;49.804;24.072;2023-08-31T01:30:31;96344.66;;;19.17;76.72
35878;BME280;21982;49.804;24.072;2023-08-31T01:32:57;96379.88;;;19.36;76.94
35878;BME280;21982;49.804;24.072;2023-08-31T01:35:23;96384.44;;;19.35;77.15
35878;BME280;21982;49.804;24.072;2023-08-31T01:37:55;96382.53;;;19.41;76.55
35878;BME280;21982;49.804;24.072;2023-08-31T01:40:36;96371.53;;;19.27;76.57
35878;BME280;21982;49.804;24.072;2023-08-31T01:43:04;96340.34;;;19.06;76.96
35878;BME280;21982;49.804;24.072;2023-08-31T01:45:32;96380.13;;;19.29;76.80
35878;BME280;21982;49.804;24.072;2023-08-31T01:47:59;96385.47;;;19.24;77.00
35878;BME280;21982;49.804;24.072;2023-08-31T01:50:24;96310.75;;;18.70;76.96
35878;BME280;21982;49.804;24.072;2023-08-31T01:52:53;96332.75;;;18.78;77.47
35878;BME280;21982;49.804;24.072;2023-08-31T01:55:18;96373.34;;;19.01;77.67
35878;BME280;21982;49.804;24.072;2023-08-31T01:57:44;96381.13;;;18.98;77.84
35878;BME280;21982;49.804;24.072;2023-08-31T02:00:10;96367.69;;;18.98;77.69
35878;BME280;21982;49.804;24.072;2023-08-31T02:02:36;96372.53;;;18.96;78.08
35878;BME280;21982;49.804;24.072;2023-08-31T02:05:02;96353.41;;;18.77;78.20
35878;BME280;21982;49.804;24.072;2023-08-31T02:07:29;96374.91;;;18.92;78.44
35878;BME280;21982;49.804;24.072;2023-08-31T02:09:55;96375.72;;;18.93;78.49
35878;BME280;21982;49.804;24.072;2023-08-31T02:12:20;96336.47;;;18.66;78.72
35878;BME280;21982;49.804;24.072;2023-08-31T02:14:46;96367.91;;;18.81;78.44
35878;BME280;21982;49.804;24.072;2023-08-31T02:17:11;96378.38;;;18.88;78.62
35878;BME280;21982;49.804;24.072;2023-08-31T02:19:36;96389.66;;;18.90;78.89
35878;BME280;21982;49.804;24.072;2023-08-31T02:22:02;96346.59;;;18.59;78.92
35878;BME280;21982;49.804;24.072;2023-08-31T02:24:27;96394.47;;;18.88;78.91
35878;BME280;21982;49.804;24.072;2023-08-31T02:26:53;96396.34;;;18.87;79.27
35878;BME280;21982;49.804;24.072;2023-08-31T02:29:19;96369.75;;;18.70;79.26
35878;BME280;21982;49.804;24.072;2023-08-31T02:31:44;96392.59;;;18.88;79.21
35878;BME280;21982;49.804;24.072;2023-08-31T02:34:10;96339.59;;;18.53;79.59
35878;BME280;21982;49.804;24.072;2023-08-31T02:36:36;96397.69;;;18.85;79.62
35878;BME280;21982;49.804;24.072;2023-08-31T02:39:01;96392.84;;;18.82;79.76
35878;BME280;21982;49.804;24.072;2023-08-31T02:41:29;96410.59;;;18.88;79.70
35878;BME280;21982;49.804;24.072;2023-08-31T02:43:54;96417.00;;;18.87;79.55
35878;BME280;21982;49.804;24.072;2023-08-31T02:46:20;96406.22;;;18.77;79.98
35878;BME280;21982;49.804;24.072;2023-08-31T02:48:45;96425.59;;;18.89;79.56
35878;BME280;21982;49.804;24.072;2023-08-31T02:51:11;96427.75;;;18.92;79.89
35878;BME280;21982;49.804;24.072;2023-08-31T02:53:36;96425.59;;;18.89;79.92
35878;BME280;21982;49.804;24.072;2023-08-31T02:56:02;96387.97;;;18.68;79.73
35878;BME280;21982;49.804;24.072;2023-08-31T02:58:28;96435.28;;;18.90;80.08
35878;BME280;21982;49.804;24.072;2023-08-31T03:00:53;96319.59;;;18.19;79.97
35878;BME280;21982;49.804;24.072;2023-08-31T03:03:19;96376.03;;;18.49;80.00
35878;BME280;21982;49.804;24.072;2023-08-31T03:05:44;96351.81;;;18.29;80.39
35878;BME280;21982;49.804;24.072;2023-08-31T03:08:10;96430.94;;;18.84;80.27
35878;BME280;21982;49.804;24.072;2023-08-31T03:10:36;96434.44;;;18.84;80.23
35878;BME280;21982;49.804;24.072;2023-08-31T03:13:02;96443.84;;;18.87;80.27
35878;BME280;21982;49.804;24.072;2023-08-31T03:15:27;96442.00;;;18.92;80.19
35878;BME280;21982;49.804;24.072;2023-08-31T03:17:56;96449.53;;;19.00;79.83
35878;BME280;21982;49.804;24.072;2023-08-31T03:20:21;96432.59;;;18.90;80.01
35878;BME280;21982;49.804;24.072;2023-08-31T03:22:46;96452.22;;;19.00;79.91
35878;BME280;21982;49.804;24.072;2023-08-31T03:25:12;96443.06;;;18.91;79.86
35878;BME280;21982;49.804;24.072;2023-08-31T03:27:37;96441.41;;;18.85;79.92
35878;BME280;21982;49.804;24.072;2023-08-31T03:30:03;96443.84;;;18.87;80.07
35878;BME280;21982;49.804;24.072;2023-08-31T03:32:29;96464.28;;;18.98;79.92
35878;BME280;21982;49.804;24.072;2023-08-31T03:34:54;96471.28;;;19.04;79.81
35878;BME280;21982;49.804;24.072;2023-08-31T03:37:20;96471.28;;;19.04;79.86
35878;BME280;21982;49.804;24.072;2023-08-31T03:39:48;96459.69;;;18.93;79.64
35878;BME280;21982;49.804;24.072;2023-08-31T03:42:13;96418.28;;;18.69;79.94
35878;BME280;21982;49.804;24.072;2023-08-31T03:44:39;96468.00;;;18.92;79.86
35878;BME280;21982;49.804;24.072;2023-08-31T03:47:04;96442.97;;;18.76;79.87
35878;BME280;21982;49.804;24.072;2023-08-31T03:49:30;96477.69;;;18.98;79.86
35878;BME280;21982;49.804;24.072;2023-08-31T03:51:57;96471.53;;;18.97;79.90
35878;BME280;21982;49.804;24.072;2023-08-31T03:54:22;96345.81;;;18.12;79.82
35878;BME280;21982;49.804;24.072;2023-08-31T03:56:48;96478.78;;;18.97;79.83
35878;BME280;21982;49.804;24.072;2023-08-31T03:59:13;96465.09;;;18.98;80.01
35878;BME280;21982;49.804;24.072;2023-08-31T04:01:38;96451.94;;;18.97;79.73
35878;BME280;21982;49.804;24.072;2023-08-31T04:04:04;96474.53;;;19.11;79.85
35878;BME280;21982;49.804;24.072;2023-08-31T04:06:30;96447.34;;;18.92;79.77
35878;BME280;21982;49.804;24.072;2023-08-31T04:08:55;96494.16;;;19.22;79.53
35878;BME280;21982;49.804;24.072;2023-08-31T04:11:21;96473.44;;;19.12;79.38
35878;BME280;21982;49.804;24.072;2023-08-31T04:13:47;96489.09;;;19.25;79.42
35878;BME280;21982;49.804;24.072;2023-08-31T04:16:12;96436.66;;;18.97;79.27
35878;BME280;21982;49.804;24.072;2023-08-31T04:18:37;96493.13;;;19.28;78.52
35878;BME280;21982;49.804;24.072;2023-08-31T04:21:03;96503.56;;;19.24;78.68
35878;BME280;21982;49.804;24.072;2023-08-31T04:23:28;96508.38;;;19.22;78.83
35878;BME280;21982;49.804;24.072;2023-08-31T04:25:54;96464.78;;;18.90;78.94
35878;BME280;21982;49.804;24.072;2023-08-31T04:28:20;96515.38;;;19.23;78.82
35878;BME280;21982;49.804;24.072;2023-08-31T04:30:45;96508.88;;;19.14;78.87
35878;BME280;21982;49.804;24.072;2023-08-31T04:33:11;96500.31;;;19.17;78.99
35878;BME280;21982;49.804;24.072;2023-08-31T04:35:36;96494.41;;;19.15;78.58
35878;BME280;21982;49.804;24.072;2023-08-31T04:38:02;96502.41;;;19.10;78.68
35878;BME280;21982;49.804;24.072;2023-08-31T04:40:28;96510.56;;;19.25;78.63
35878;BME280;21982;49.804;24.072;2023-08-31T04:42:57;96515.66;;;19.27;78.48
35878;BME280;21982;49.804;24.072;2023-08-31T04:45:23;96514.81;;;19.21;78.31
35878;BME280;21982;49.804;24.072;2023-08-31T04:47:49;96506.44;;;19.02;78.58
35878;BME280;21982;49.804;24.072;2023-08-31T04:50:16;96432.66;;;18.58;78.49
35878;BME280;21982;49.804;24.072;2023-08-31T04:52:42;96498.66;;;19.01;78.67
35878;BME280;21982;49.804;24.072;2023-08-31T04:55:08;96528.81;;;19.28;78.27
35878;BME280;21982;49.804;24.072;2023-08-31T04:57:34;96533.41;;;19.33;78.04
35878;BME280;21982;49.804;24.072;2023-08-31T04:59:59;96485.19;;;18.96;77.71
35878;BME280;21982;49.804;24.072;2023-08-31T05:02:24;96519.69;;;19.24;77.78
35878;BME280;21982;49.804;24.072;2023-08-31T05:04:50;96534.50;;;19.37;77.61
35878;BME280;21982;49.804;24.072;2023-08-31T05:07:16;96546.41;;;19.56;77.07
35878;BME280;21982;49.804;24.072;2023-08-31T05:09:41;96549.41;;;19.65;76.88
35878;BME280;21982;49.804;24.072;2023-08-31T05:12:07;96511.69;;;19.45;76.41
35878;BME280;21982;49.804;24.072;2023-08-31T05:14:32;96567.44;;;19.74;76.29
35878;BME280;21982;49.804;24.072;2023-08-31T05:17:00;96507.91;;;19.40;75.88
35878;BME280;21982;49.804;24.072;2023-08-31T05:19:25;96305.66;;;18.17;76.09
35878;BME280;21982;49.804;24.072;2023-08-31T05:21:51;96560.19;;;19.85;75.67
35878;BME280;21982;49.804;24.072;2023-08-31T05:24:16;96308.13;;;18.23;75.36
35878;BME280;21982;49.804;24.072;2023-08-31T05:26:41;96533.88;;;19.87;75.24
35878;BME280;21982;49.804;24.072;2023-08-31T05:29:07;96566.69;;;20.15;75.02
35878;BME280;21982;49.804;24.072;2023-08-31T05:31:32;96396.44;;;19.18;74.40
35878;BME280;21982;49.804;24.072;2023-08-31T05:33:58;96562.41;;;20.24;74.55
35878;BME280;21982;49.804;24.072;2023-08-31T05:36:23;96515.59;;;19.89;74.17
35878;BME280;21982;49.804;24.072;2023-08-31T05:38:50;96565.09;;;20.24;74.03
35878;BME280;21982;49.804;24.072;2023-08-31T05:41:16;96551.63;;;19.98;74.08
35878;BME280;21982;49.804;24.072;2023-08-31T05:43:41;96559.16;;;19.96;74.14
35878;BME280;21982;49.804;24.072;2023-08-31T05:46:07;96582.53;;;20.11;74.13
35878;BME280;21982;49.804;24.072;2023-08-31T05:48:34;96579.63;;;20.07;74.38
35878;BME280;21982;49.804;24.072;2023-08-31T05:50:59;96505.53;;;19.49;74.35
35878;BME280;21982;49.804;24.072;2023-08-31T05:53:25;96552.38;;;19.79;74.40
35878;BME280;21982;49.804;24.072;2023-08-31T05:55:51;96553.19;;;19.69;74.61
35878;BME280;21982;49.804;24.072;2023-08-31T05:58:16;96581.69;;;19.90;74.78
35878;BME280;21982;49.804;24.072;2023-08-31T06:00:42;96578.75;;;19.87;74.52
35878;BME280;21982;49.804;24.072;2023-08-31T06:03:07;96597.34;;;20.08;74.63
35878;BME280;21982;49.804;24.072;2023-08-31T06:05:33;96592.31;;;20.43;74.34
35878;BME280;21982;49.804;24.072;2023-08-31T06:07:58;96489.31;;;20.06;72.98
35878;BME280;21982;49.804;24.072;2023-08-31T06:10:24;96593.09;;;20.89;72.80
35878;BME280;21982;49.804;24.072;2023-08-31T06:12:50;96586.91;;;20.88;72.02
35878;BME280;21982;49.804;24.072;2023-08-31T06:15:16;96568.63;;;20.90;71.93
35878;BME280;21982;49.804;24.072;2023-08-31T06:17:42;96540.91;;;20.90;71.24
35878;BME280;21982;49.804;24.072;2023-08-31T06:20:09;96603.28;;;21.43;70.54
35878;BME280;21982;49.804;24.072;2023-08-31T06:22:34;96608.09;;;21.51;70.52
35878;BME280;21982;49.804;24.072;2023-08-31T06:25:00;96538.41;;;21.19;70.29
35878;BME280;21982;49.804;24.072;2023-08-31T06:27:26;96609.28;;;21.89;69.56
35878;BME280;21982;49.804;24.072;2023-08-31T06:29:51;96525.69;;;21.45;69.32
35878;BME280;21982;49.804;24.072;2023-08-31T06:32:17;96579.97;;;21.82;68.92
35878;BME280;21982;49.804;24.072;2023-08-31T06:34:44;96615.06;;;22.21;68.10
35878;BME280;21982;49.804;24.072;2023-08-31T06:37:09;96607.34;;;22.10;67.27
35878;BME280;21982;49.804;24.072;2023-08-31T06:39:35;96584.72;;;21.95;67.22
35878;BME280;21982;49.804;24.072;2023-08-31T06:42:04;96589.03;;;22.01;67.16
35878;BME280;21982;49.804;24.072;2023-08-31T06:44:30;96556.16;;;21.94;66.19
35878;BME280;21982;49.804;24.072;2023-08-31T06:46:59;96609.88;;;22.35;66.50
35878;BME280;21982;49.804;24.072;2023-08-31T06:49:24;96600.06;;;22.49;66.17
35878;BME280;21982;49.804;24.072;2023-08-31T06:51:50;96597.25;;;22.64;65.14
35878;BME280;21982;49.804;24.072;2023-08-31T06:54:15;96617.00;;;22.94;64.54
35878;BME280;21982;49.804;24.072;2023-08-31T06:56:40;96639.78;;;23.69;63.22
35878;BME280;21982;49.804;24.072;2023-08-31T06:59:06;96611.25;;;24.44;61.42
35878;BME280;21982;49.804;24.072;2023-08-31T07:01:32;96616.19;;;25.25;59.33
35878;BME280;21982;49.804;24.072;2023-08-31T07:04:00;96649.38;;;26.04;57.76
35878;BME280;21982;49.804;24.072;2023-08-31T07:06:25;96642.50;;;26.70;56.29
35878;BME280;21982;49.804;24.072;2023-08-31T07:08:54;96647.66;;;27.17;54.80
35878;BME280;21982;49.804;24.072;2023-08-31T07:11:19;96645.69;;;28.10;52.97
35878;BME280;21982;49.804;24.072;2023-08-31T07:13:47;96605.91;;;28.31;51.10
35878;BME280;21982;49.804;24.072;2023-08-31T07:16:13;96636.00;;;29.30;49.82
35878;BME280;21982;49.804;24.072;2023-08-31T07:18:38;96649.06;;;30.09;48.15
35878;BME280;21982;49.804;24.072;2023-08-31T07:21:03;96589.00;;;30.30;46.84
35878;BME280;21982;49.804;24.072;2023-08-31T07:23:31;96611.22;;;31.24;44.90
35878;BME280;21982;49.804;24.072;2023-08-31T07:25:57;96658.78;;;31.31;43.76
35878;BME280;21982;49.804;24.072;2023-08-31T07:28:26;96659.31;;;31.25;43.88
35878;BME280;21982;49.804;24.072;2023-08-31T07:31:05;96667.97;;;31.60;43.75
35878;BME280;21982;49.804;24.072;2023-08-31T07:33:32;96679.94;;;32.37;42.23
35878;BME280;21982;49.804;24.072;2023-08-31T07:35:58;96675.69;;;32.03;41.61
35878;BME280;21982;49.804;24.072;2023-08-31T07:38:24;96631.28;;;31.28;41.30
35878;BME280;21982;49.804;24.072;2023-08-31T07:40:52;96674.38;;;31.31;42.14
35878;BME280;21982;49.804;24.072;2023-08-31T07:43:17;96674.44;;;30.69;42.49
35878;BME280;21982;49.804;24.072;2023-08-31T07:45:42;96680.41;;;31.24;41.71
35878;BME280;21982;49.804;24.072;2023-08-31T07:48:08;96686.50;;;31.75;40.79
35878;BME280;21982;49.804;24.072;2023-08-31T07:50:33;96654.56;;;31.91;38.86
35878;BME280;21982;49.804;24.072;2023-08-31T07:53:00;96684.81;;;31.83;39.34
35878;BME280;21982;49.804;24.072;2023-08-31T07:55:25;96681.97;;;32.16;39.28
35878;BME280;21982;49.804;24.072;2023-08-31T07:57:51;96657.19;;;32.00;38.58
35878;BME280;21982;49.804;24.072;2023-08-31T08:00:16;96691.53;;;31.73;38.92
35878;BME280;21982;49.804;24.072;2023-08-31T08:02:42;96689.63;;;31.53;38.62
35878;BME280;21982;49.804;24.072;2023-08-31T08:05:08;96605.41;;;31.25;38.58
35878;BME280;21982;49.804;24.072;2023-08-31T08:07:34;96693.63;;;32.25;38.14
35878;BME280;21982;49.804;24.072;2023-08-31T08:09:59;96698.31;;;32.49;37.59
35878;BME280;21982;49.804;24.072;2023-08-31T08:12:25;96705.03;;;32.76;37.20
35878;BME280;21982;49.804;24.072;2023-08-31T08:14:50;96671.50;;;32.30;37.28
35878;BME280;21982;49.804;24.072;2023-08-31T08:17:16;96671.91;;;31.71;37.68
35878;BME280;21982;49.804;24.072;2023-08-31T08:19:41;96648.63;;;30.78;38.66
35878;BME280;21982;49.804;24.072;2023-08-31T08:22:07;96633.09;;;30.49;39.00
35878;BME280;21982;49.804;24.072;2023-08-31T08:24:32;96590.00;;;29.96;39.19
35878;BME280;21982;49.804;24.072;2023-08-31T08:26:57;96706.91;;;31.12;39.03
35878;BME280;21982;49.804;24.072;2023-08-31T08:29:30;96663.03;;;31.41;38.24
35878;BME280;21982;49.804;24.072;2023-08-31T08:31:56;96697.94;;;31.56;37.54
35878;BME280;21982;49.804;24.072;2023-08-31T08:34:21;96707.97;;;31.19;38.11
35878;BME280;21982;49.804;24.072;2023-08-31T08:36:46;96698.09;;;30.35;38.89
35878;BME280;21982;49.804;24.072;2023-08-31T08:39:12;96682.47;;;31.07;38.54
35878;BME280;21982;49.804;24.072;2023-08-31T08:41:38;96710.28;;;31.29;37.54
35878;BME280;21982;49.804;24.072;2023-08-31T08:44:06;96660.41;;;31.45;37.12
35878;BME280;21982;49.804;24.072;2023-08-31T08:46:32;96663.34;;;30.65;37.44
35878;BME280;21982;49.804;24.072;2023-08-31T08:48:59;96712.25;;;29.82;39.00
35878;BME280;21982;49.804;24.072;2023-08-31T08:51:29;96703.72;;;29.45;39.90
35878;BME280;21982;49.804;24.072;2023-08-31T08:53:59;96699.78;;;30.48;38.57
35878;BME280;21982;49.804;24.072;2023-08-31T08:56:24;96712.06;;;31.79;37.65
35878;BME280;21982;49.804;24.072;2023-08-31T08:58:50;96683.59;;;32.29;35.95
35878;BME280;21982;49.804;24.072;2023-08-31T09:01:15;96716.13;;;32.79;35.26
35878;BME280;21982;49.804;24.072;2023-08-31T09:03:44;96697.00;;;33.23;35.11
35878;BME280;21982;49.804;24.072;2023-08-31T09:06:11;96718.94;;;33.35;35.07
35878;BME280;21982;49.804;24.072;2023-08-31T09:08:36;96620.22;;;32.43;35.04
35878;BME280;21982;49.804;24.072;2023-08-31T09:11:02;96712.59;;;33.07;34.74
35878;BME280;21982;49.804;24.072;2023-08-31T09:13:28;96725.88;;;33.45;34.21
35878;BME280;21982;49.804;24.072;2023-08-31T09:15:54;96719.97;;;33.86;33.87
35878;BME280;21982;49.804;24.072;2023-08-31T09:18:30;96722.22;;;33.01;33.60
35878;BME280;21982;49.804;24.072;2023-08-31T09:21:00;96729.56;;;32.60;34.29
35878;BME280;21982;49.804;24.072;2023-08-31T09:23:26;96709.25;;;32.61;33.82
35878;BME280;21982;49.804;24.072;2023-08-31T09:25:53;96729.13;;;33.22;33.57
35878;BME280;21982;49.804;24.072;2023-08-31T09:28:23;96717.94;;;32.87;35.00
35878;BME280;21982;49.804;24.072;2023-08-31T09:30:51;96720.03;;;33.06;34.72
35878;BME280;21982;49.804;24.072;2023-08-31T09:33:19;96730.56;;;31.82;35.76
35878;BME280;21982;49.804;24.072;2023-08-31T09:36:06;96726.81;;;30.41;37.25
35878;BME280;21982;49.804;24.072;2023-08-31T09:38:33;96651.72;;;29.16;39.11
35878;BME280;21982;49.804;24.072;2023-08-31T09:41:05;96739.56;;;31.08;38.35
35878;BME280;21982;49.804;24.072;2023-08-31T09:43:31;96685.66;;;32.32;36.50
35878;BME280;21982;49.804;24.072;2023-08-31T09:45:57;96706.97;;;32.14;35.95
35878;BME280;21982;49.804;24.072;2023-08-31T09:48:24;96731.09;;;31.43;37.13
35878;BME280;21982;49.804;24.072;2023-08-31T09:50:51;96717.81;;;30.70;37.58
35878;BME280;21982;49.804;24.072;2023-08-31T09:53:18;96745.09;;;30.79;37.99
35878;BME280;21982;49.804;24.072;2023-08-31T09:55:46;96754.91;;;30.80;38.31
35878;BME280;21982;49.804;24.072;2023-08-31T09:58:12;96689.75;;;30.61;37.99
35878;BME280;21982;49.804;24.072;2023-08-31T10:00:41;96755.34;;;31.98;37.38
35878;BME280;21982;49.804;24.072;2023-08-31T10:03:07;96747.69;;;33.13;35.61
35878;BME280;21982;49.804;24.072;2023-08-31T10:05:34;96757.28;;;33.75;34.54
35878;BME280;21982;49.804;24.072;2023-08-31T10:08:00;96761.78;;;33.00;34.28
35878;BME280;21982;49.804;24.072;2023-08-31T10:10:27;96754.78;;;33.14;34.85
35878;BME280;21982;49.804;24.072;2023-08-31T10:12:53;96739.31;;;33.78;33.68
35878;BME280;21982;49.804;24.072;2023-08-31T10:15:19;96739.59;;;34.83;32.66
35878;BME280;21982;49.804;24.072;2023-08-31T10:17:45;96738.94;;;35.24;31.72
35878;BME280;21982;49.804;24.072;2023-08-31T10:20:14;96713.50;;;34.77;32.41
35878;BME280;21982;49.804;24.072;2023-08-31T10:22:40;96759.78;;;34.55;32.34
35878;BME280;21982;49.804;24.072;2023-08-31T10:25:07;96757.72;;;34.21;32.96
35878;BME280;21982;49.804;24.072;2023-08-31T10:27:40;96706.03;;;33.23;33.51
35878;BME280;21982;49.804;24.072;2023-08-31T10:32:41;96751.88;;;32.46;34.41
35878;BME280;21982;49.804;24.072;2023-08-31T10:35:10;96768.09;;;31.94;35.10
35878;BME280;21982;49.804;24.072;2023-08-31T10:37:35;96723.94;;;31.17;35.79
35878;BME280;21982;49.804;24.072;2023-08-31T10:40:10;96721.44;;;31.24;35.38
35878;BME280;21982;49.804;24.072;2023-08-31T10:42:45;96758.72;;;32.52;34.92
35878;BME280;21982;49.804;24.072;2023-08-31T10:45:13;96755.31;;;32.55;34.42
35878;BME280;21982;49.804;24.072;2023-08-31T10:47:42;96764.84;;;31.68;35.02
35878;BME280;21982;49.804;24.072;2023-08-31T10:50:26;96760.16;;;30.55;36.23
35878;BME280;21982;49.804;24.072;2023-08-31T10:52:51;96714.75;;;30.42;36.61
35878;BME280;21982;49.804;24.072;2023-08-31T10:55:16;96760.56;;;31.79;35.60
35878;BME280;21982;49.804;24.072;2023-08-31T10:57:42;96755.50;;;32.62;34.22
35878;BME280;21982;49.804;24.072;2023-08-31T11:00:08;96755.88;;;33.25;33.75
35878;BME280;21982;49.804;24.072;2023-08-31T11:02:34;96762.88;;;33.23;33.64
35878;BME280;21982;49.804;24.072;2023-08-31T11:05:00;96769.84;;;33.20;32.72
35878;BME280;21982;49.804;24.072;2023-08-31T11:07:29;96739.47;;;33.01;32.75
35878;BME280;21982;49.804;24.072;2023-08-31T11:12:44;96732.94;;;30.00;36.43
35878;BME280;21982;49.804;24.072;2023-08-31T11:15:14;96739.78;;;29.33;37.72
35878;BME280;21982;49.804;24.072;2023-08-31T11:17:41;96734.69;;;29.41;38.57
35878;BME280;21982;49.804;24.072;2023-08-31T11:20:08;96696.19;;;28.99;38.55
35878;BME280;21982;49.804;24.072;2023-08-31T11:22:38;96780.19;;;29.14;38.57
35878;BME280;21982;49.804;24.072;2023-08-31T11:25:05;96779.81;;;28.73;39.53
35878;BME280;21982;49.804;24.072;2023-08-31T11:27:30;96776.69;;;28.48;40.16
35878;BME280;21982;49.804;24.072;2023-08-31T11:29:55;96778.63;;;28.17;40.28
35878;BME280;21982;49.804;24.072;2023-08-31T11:32:24;96745.84;;;27.60;40.35
35878;BME280;21982;49.804;24.072;2023-08-31T11:34:50;96724.56;;;27.17;41.55
35878;BME280;21982;49.804;24.072;2023-08-31T11:37:15;96776.97;;;27.31;41.56
35878;BME280;21982;49.804;24.072;2023-08-31T11:39:53;96731.31;;;26.84;41.61
35878;BME280;21982;49.804;24.072;2023-08-31T11:42:21;96771.28;;;27.19;42.23
35878;BME280;21982;49.804;24.072;2023-08-31T11:44:48;96756.53;;;27.34;41.85
35878;BME280;21982;49.804;24.072;2023-08-31T11:47:15;96762.19;;;27.46;41.76
35878;BME280;21982;49.804;24.072;2023-08-31T11:49:46;96736.56;;;27.38;41.42
35878;BME280;21982;49.804;24.072;2023-08-31T11:52:12;96773.56;;;27.48;41.09
35878;BME280;21982;49.804;24.072;2023-08-31T11:54:38;96768.72;;;27.36;41.56
35878;BME280;21982;49.804;24.072;2023-08-31T11:57:07;96753.31;;;27.32;41.95
35878;BME280;21982;49.804;24.072;2023-08-31T11:59:34;96769.75;;;27.49;42.40
35878;BME280;21982;49.804;24.072;2023-08-31T12:02:00;96763.75;;;28.62;41.06
35878;BME280;21982;49.804;24.072;2023-08-31T12:04:25;96712.66;;;29.54;39.17
35878;BME280;21982;49.804;24.072;2023-08-31T12:06:51;96708.31;;;29.62;38.55
35878;BME280;21982;49.804;24.072;2023-08-31T12:09:17;96711.38;;;28.74;39.28
35878;BME280;21982;49.804;24.072;2023-08-31T12:11:52;96771.72;;;28.50;40.05
35878;BME280;21982;49.804;24.072;2023-08-31T12:14:20;96759.56;;;28.17;40.61
35878;BME280;21982;49.804;24.072;2023-08-31T12:16:46;96776.91;;;28.21;41.16
35878;BME280;21982;49.804;24.072;2023-08-31T12:19:11;96772.44;;;28.64;40.55
35878;BME280;21982;49.804;24.072;2023-08-31T12:21:36;96744.84;;;28.57;40.53
35878;BME280;21982;49.804;24.072;2023-08-31T12:24:02;96743.91;;;28.71;40.60
35878;BME280;21982;49.804;24.072;2023-08-31T12:26:29;96779.72;;;29.73;40.10
35878;BME280;21982;49.804;24.072;2023-08-31T12:28:54;96779.03;;;30.48;38.64
35878;BME280;21982;49.804;24.072;2023-08-31T12:31:20;96756.00;;;31.50;37.78
35878;BME280;21982;49.804;24.072;2023-08-31T12:33:45;96778.34;;;32.67;36.59
35878;BME280;21982;49.804;24.072;2023-08-31T12:36:12;96782.94;;;32.38;35.05
35878;BME280;21982;49.804;24.072;2023-08-31T12:38:37;96760.91;;;30.94;36.37
35878;BME280;21982;49.804;24.072;2023-08-31T12:41:03;96749.22;;;30.26;37.41
35878;BME280;21982;49.804;24.072;2023-08-31T12:43:29;96750.28;;;29.95;37.75
35878;BME280;21982;49.804;24.072;2023-08-31T12:45:55;96785.03;;;30.33;37.94
35878;BME280;21982;49.804;24.072;2023-08-31T12:48:21;96761.13;;;30.51;37.24
35878;BME280;21982;49.804;24.072;2023-08-31T12:50:46;96782.44;;;30.95;36.47
35878;BME280;21982;49.804;24.072;2023-08-31T12:53:14;96698.41;;;29.95;35.79
35878;BME280;21982;49.804;24.072;2023-08-31T12:55:39;96780.78;;;30.06;35.98
35878;BME280;21982;49.804;24.072;2023-08-31T12:58:05;96786.91;;;29.86;37.04